sensor_id;sensor_type;location;lat;lon;timestamp;P1;durP1;ratioP1;P2;durP2;ratioP2
55617;SDS011;41492;49.804;9.952;2023-02-05T00:02:26;658.22;;;289.05;;
55617;SDS011;41492;49.804;9.952;2023-02-05T00:04:52;653.45;;;275.80;;
55617;SDS011;41492;49.804;9.952;2023-02-05T00:07:19;655.50;;;286.20;;
55617;SDS011;41492;49.804;9.952;2023-02-05T00:09:45;654.47;;;279.60;;
55617;SDS011;41492;49.804;9.952;2023-02-05T00:12:12;652.30;;;271.67;;
55617;SDS011;41492;49.804;9.952;2023-02-05T00:14:38;652.85;;;272.63;;
55617;SDS011;41492;49.804;9.952;2023-02-05T00:17:06;656.63;;;287.48;;
55617;SDS011;41492;49.804;9.952;2023-02-05T00:19:33;654.40;;;274.40;;
55617;SDS011;41492;49.804;9.952;2023-02-05T00:22:00;656.70;;;284.38;;
55617;SDS011;41492;49.804;9.952;2023-02-05T00:24:26;650.20;;;273.23;;
55617;SDS011;41492;49.804;9.952;2023-02-05T00:26:53;654.03;;;280.85;;
55617;SDS011;41492;49.804;9.952;2023-02-05T00:29:19;648.80;;;265.73;;
55617;SDS011;41492;49.804;9.952;2023-02-05T00:31:46;646.35;;;260.40;;
55617;SDS011;41492;49.804;9.952;2023-02-05T00:34:15;651.75;;;269.05;;
55617;SDS011;41492;49.804;9.952;2023-02-05T00:36:41;654.17;;;285.25;;
55617;SDS011;41492;49.804;9.952;2023-02-05T00:39:08;653.67;;;278.38;;
55617;SDS011;41492;49.804;9.952;2023-02-05T00:41:35;654.38;;;279.90;;
55617;SDS011;41492;49.804;9.952;2023-02-05T00:44:02;652.83;;;280.80;;
55617;SDS011;41492;49.804;9.952;2023-02-05T00:46:29;654.03;;;276.60;;
55617;SDS011;41492;49.804;9.952;2023-02-05T00:48:55;652.20;;;278.23;;
55617;SDS011;41492;49.804;9.952;2023-02-05T00:51:23;649.58;;;266.33;;
55617;SDS011;41492;49.804;9.952;2023-02-05T00:53:50;656.15;;;287.98;;
55617;SDS011;41492;49.804;9.952;2023-02-05T00:56:16;655.28;;;286.60;;
55617;SDS011;41492;49.804;9.952;2023-02-05T00:58:43;653.55;;;280.15;;
55617;SDS011;41492;49.804;9.952;2023-02-05T01:01:11;655.88;;;284.35;;
55617;SDS011;41492;49.804;9.952;2023-02-05T01:03:38;653.20;;;274.35;;
55617;SDS011;41492;49.804;9.952;2023-02-05T01:06:05;654.92;;;279.45;;
55617;SDS011;41492;49.804;9.952;2023-02-05T01:08:33;654.65;;;286.65;;
55617;SDS011;41492;49.804;9.952;2023-02-05T01:11:00;651.78;;;279.38;;
55617;SDS011;41492;49.804;9.952;2023-02-05T01:13:26;652.05;;;274.35;;
55617;SDS011;41492;49.804;9.952;2023-02-05T01:15:53;654.05;;;285.15;;
55617;SDS011;41492;49.804;9.952;2023-02-05T01:18:19;650.88;;;275.05;;
55617;SDS011;41492;49.804;9.952;2023-02-05T01:20:46;652.83;;;271.00;;
55617;SDS011;41492;49.804;9.952;2023-02-05T01:23:13;651.58;;;268.67;;
55617;SDS011;41492;49.804;9.952;2023-02-05T01:25:40;647.72;;;260.50;;
55617;SDS011;41492;49.804;9.952;2023-02-05T01:28:07;651.25;;;274.92;;
55617;SDS011;41492;49.804;9.952;2023-02-05T01:30:34;653.78;;;279.50;;
55617;SDS011;41492;49.804;9.952;2023-02-05T01:33:01;655.80;;;283.35;;
55617;SDS011;41492;49.804;9.952;2023-02-05T01:35:27;652.47;;;277.42;;
55617;SDS011;41492;49.804;9.952;2023-02-05T01:37:54;650.83;;;273.85;;
55617;SDS011;41492;49.804;9.952;2023-02-05T01:40:21;653.38;;;286.25;;
55617;SDS011;41492;49.804;9.952;2023-02-05T01:42:49;653.03;;;280.98;;
55617;SDS011;41492;49.804;9.952;2023-02-05T01:48:06;651.00;;;274.88;;
55617;SDS011;41492;49.804;9.952;2023-02-05T01:50:35;647.65;;;265.27;;
55617;SDS011;41492;49.804;9.952;2023-02-05T01:53:05;650.08;;;273.92;;
55617;SDS011;41492;49.804;9.952;2023-02-05T01:55:34;652.58;;;277.33;;
55617;SDS011;41492;49.804;9.952;2023-02-05T01:58:03;654.22;;;273.33;;
55617;SDS011;41492;49.804;9.952;2023-02-05T02:00:29;651.53;;;273.25;;
55617;SDS011;41492;49.804;9.952;2023-02-05T02:02:56;651.15;;;275.20;;
55617;SDS011;41492;49.804;9.952;2023-02-05T02:05:23;652.80;;;275.95;;
55617;SDS011;41492;49.804;9.952;2023-02-05T02:07:50;647.92;;;262.58;;
55617;SDS011;41492;49.804;9.952;2023-02-05T02:10:17;653.40;;;282.98;;
55617;SDS011;41492;49.804;9.952;2023-02-05T02:12:44;650.22;;;268.33;;
55617;SDS011;41492;49.804;9.952;2023-02-05T02:15:14;652.30;;;270.60;;
55617;SDS011;41492;49.804;9.952;2023-02-05T02:17:43;652.22;;;277.88;;
55617;SDS011;41492;49.804;9.952;2023-02-05T02:20:13;647.75;;;267.52;;
55617;SDS011;41492;49.804;9.952;2023-02-05T02:22:52;653.28;;;285.80;;
55617;SDS011;41492;49.804;9.952;2023-02-05T02:25:37;650.30;;;269.35;;
55617;SDS011;41492;49.804;9.952;2023-02-05T02:28:21;646.50;;;265.20;;
55617;SDS011;41492;49.804;9.952;2023-02-05T02:30:51;650.65;;;271.63;;
55617;SDS011;41492;49.804;9.952;2023-02-05T02:33:27;647.30;;;260.60;;
55617;SDS011;41492;49.804;9.952;2023-02-05T02:35:57;649.75;;;267.05;;
55617;SDS011;41492;49.804;9.952;2023-02-05T02:38:27;652.50;;;275.15;;
55617;SDS011;41492;49.804;9.952;2023-02-05T02:40:57;653.28;;;282.10;;
55617;SDS011;41492;49.804;9.952;2023-02-05T02:43:29;653.38;;;279.52;;
55617;SDS011;41492;49.804;9.952;2023-02-05T02:45:58;651.80;;;279.20;;
55617;SDS011;41492;49.804;9.952;2023-02-05T02:48:25;648.97;;;265.70;;
55617;SDS011;41492;49.804;9.952;2023-02-05T02:50:54;648.85;;;267.33;;
55617;SDS011;41492;49.804;9.952;2023-02-05T02:53:23;652.20;;;274.13;;
55617;SDS011;41492;49.804;9.952;2023-02-05T02:55:51;648.67;;;253.95;;
55617;SDS011;41492;49.804;9.952;2023-02-05T02:58:22;648.47;;;260.73;;
55617;SDS011;41492;49.804;9.952;2023-02-05T03:00:50;643.90;;;250.38;;
55617;SDS011;41492;49.804;9.952;2023-02-05T03:03:19;647.10;;;262.85;;
55617;SDS011;41492;49.804;9.952;2023-02-05T03:05:47;651.90;;;280.00;;
55617;SDS011;41492;49.804;9.952;2023-02-05T03:08:16;647.85;;;261.08;;
55617;SDS011;41492;49.804;9.952;2023-02-05T03:10:45;648.88;;;268.42;;
55617;SDS011;41492;49.804;9.952;2023-02-05T03:13:14;649.83;;;265.63;;
55617;SDS011;41492;49.804;9.952;2023-02-05T03:15:41;647.10;;;260.90;;
55617;SDS011;41492;49.804;9.952;2023-02-05T03:18:10;650.95;;;272.58;;
55617;SDS011;41492;49.804;9.952;2023-02-05T03:20:38;652.28;;;270.85;;
55617;SDS011;41492;49.804;9.952;2023-02-05T03:23:07;650.28;;;266.85;;
55617;SDS011;41492;49.804;9.952;2023-02-05T03:25:34;653.03;;;276.77;;
55617;SDS011;41492;49.804;9.952;2023-02-05T03:28:00;650.33;;;267.70;;
55617;SDS011;41492;49.804;9.952;2023-02-05T03:30:28;645.92;;;256.73;;
55617;SDS011;41492;49.804;9.952;2023-02-05T03:32:59;653.00;;;275.45;;
55617;SDS011;41492;49.804;9.952;2023-02-05T03:35:35;650.47;;;269.83;;
55617;SDS011;41492;49.804;9.952;2023-02-05T03:38:18;655.47;;;277.45;;
55617;SDS011;41492;49.804;9.952;2023-02-05T03:40:53;647.10;;;260.27;;
55617;SDS011;41492;49.804;9.952;2023-02-05T03:43:23;653.60;;;274.42;;
55617;SDS011;41492;49.804;9.952;2023-02-05T03:45:58;650.25;;;266.70;;
55617;SDS011;41492;49.804;9.952;2023-02-05T03:48:28;652.33;;;272.00;;
55617;SDS011;41492;49.804;9.952;2023-02-05T03:51:06;648.15;;;263.45;;
55617;SDS011;41492;49.804;9.952;2023-02-05T03:53:43;648.22;;;265.77;;
55617;SDS011;41492;49.804;9.952;2023-02-05T03:56:18;649.00;;;267.55;;
55617;SDS011;41492;49.804;9.952;2023-02-05T03:58:47;649.58;;;266.58;;
55617;SDS011;41492;49.804;9.952;2023-02-05T04:01:16;654.08;;;273.42;;
55617;SDS011;41492;49.804;9.952;2023-02-05T04:03:43;646.58;;;252.05;;
55617;SDS011;41492;49.804;9.952;2023-02-05T04:06:11;655.53;;;281.27;;
55617;SDS011;41492;49.804;9.952;2023-02-05T04:08:38;647.45;;;261.65;;
55617;SDS011;41492;49.804;9.952;2023-02-05T04:11:04;652.47;;;271.02;;
55617;SDS011;41492;49.804;9.952;2023-02-05T04:13:31;651.33;;;272.25;;
55617;SDS011;41492;49.804;9.952;2023-02-05T04:15:58;643.97;;;253.18;;
55617;SDS011;41492;49.804;9.952;2023-02-05T04:18:24;647.25;;;253.13;;
55617;SDS011;41492;49.804;9.952;2023-02-05T04:20:51;652.97;;;277.13;;
55617;SDS011;41492;49.804;9.952;2023-02-05T04:23:19;647.00;;;256.63;;
55617;SDS011;41492;49.804;9.952;2023-02-05T04:25:45;644.88;;;249.93;;
55617;SDS011;41492;49.804;9.952;2023-02-05T04:28:12;653.80;;;274.45;;
55617;SDS011;41492;49.804;9.952;2023-02-05T04:30:38;647.28;;;257.77;;
55617;SDS011;41492;49.804;9.952;2023-02-05T04:33:05;642.15;;;244.80;;
55617;SDS011;41492;49.804;9.952;2023-02-05T04:35:32;648.10;;;262.30;;
55617;SDS011;41492;49.804;9.952;2023-02-05T04:37:58;649.60;;;268.38;;
55617;SDS011;41492;49.804;9.952;2023-02-05T04:40:26;649.15;;;265.52;;
55617;SDS011;41492;49.804;9.952;2023-02-05T04:42:53;650.00;;;270.40;;
55617;SDS011;41492;49.804;9.952;2023-02-05T04:45:19;647.25;;;260.08;;
55617;SDS011;41492;49.804;9.952;2023-02-05T04:47:46;649.97;;;266.88;;
55617;SDS011;41492;49.804;9.952;2023-02-05T04:50:13;646.67;;;257.73;;
55617;SDS011;41492;49.804;9.952;2023-02-05T04:52:39;644.95;;;248.02;;
55617;SDS011;41492;49.804;9.952;2023-02-05T04:55:06;646.95;;;259.00;;
55617;SDS011;41492;49.804;9.952;2023-02-05T04:57:34;649.10;;;261.48;;
55617;SDS011;41492;49.804;9.952;2023-02-05T05:00:02;645.97;;;250.82;;
55617;SDS011;41492;49.804;9.952;2023-02-05T05:02:29;650.35;;;264.83;;
55617;SDS011;41492;49.804;9.952;2023-02-05T05:04:55;646.72;;;253.02;;
55617;SDS011;41492;49.804;9.952;2023-02-05T05:07:22;650.22;;;274.80;;
55617;SDS011;41492;49.804;9.952;2023-02-05T05:09:48;644.80;;;250.68;;
55617;SDS011;41492;49.804;9.952;2023-02-05T05:12:15;648.42;;;264.90;;
55617;SDS011;41492;49.804;9.952;2023-02-05T05:14:43;649.70;;;263.30;;
55617;SDS011;41492;49.804;9.952;2023-02-05T05:17:09;644.72;;;251.85;;
55617;SDS011;41492;49.804;9.952;2023-02-05T05:19:37;642.78;;;243.80;;
55617;SDS011;41492;49.804;9.952;2023-02-05T05:22:04;645.30;;;254.07;;
55617;SDS011;41492;49.804;9.952;2023-02-05T05:24:30;645.35;;;248.50;;
55617;SDS011;41492;49.804;9.952;2023-02-05T05:26:57;645.00;;;252.27;;
55617;SDS011;41492;49.804;9.952;2023-02-05T05:29:24;649.95;;;267.90;;
55617;SDS011;41492;49.804;9.952;2023-02-05T05:31:52;648.13;;;259.92;;
55617;SDS011;41492;49.804;9.952;2023-02-05T05:34:19;643.08;;;246.27;;
55617;SDS011;41492;49.804;9.952;2023-02-05T05:36:46;653.22;;;272.30;;
55617;SDS011;41492;49.804;9.952;2023-02-05T05:39:12;643.33;;;251.77;;
55617;SDS011;41492;49.804;9.952;2023-02-05T05:41:56;649.65;;;264.30;;
55617;SDS011;41492;49.804;9.952;2023-02-05T05:44:40;647.55;;;258.88;;
55617;SDS011;41492;49.804;9.952;2023-02-05T05:47:08;642.63;;;247.13;;
55617;SDS011;41492;49.804;9.952;2023-02-05T05:49:35;647.95;;;257.42;;
55617;SDS011;41492;49.804;9.952;2023-02-05T05:52:01;648.70;;;266.35;;
55617;SDS011;41492;49.804;9.952;2023-02-05T05:54:28;648.72;;;265.95;;
55617;SDS011;41492;49.804;9.952;2023-02-05T05:56:55;650.05;;;262.50;;
55617;SDS011;41492;49.804;9.952;2023-02-05T05:59:21;647.83;;;258.17;;
55617;SDS011;41492;49.804;9.952;2023-02-05T06:01:48;648.03;;;259.00;;
55617;SDS011;41492;49.804;9.952;2023-02-05T06:04:16;651.95;;;271.00;;
55617;SDS011;41492;49.804;9.952;2023-02-05T06:06:42;647.85;;;257.08;;
55617;SDS011;41492;49.804;9.952;2023-02-05T06:09:09;646.72;;;262.38;;
55617;SDS011;41492;49.804;9.952;2023-02-05T06:11:36;646.50;;;255.73;;
55617;SDS011;41492;49.804;9.952;2023-02-05T06:14:02;646.20;;;255.40;;
55617;SDS011;41492;49.804;9.952;2023-02-05T06:16:29;648.85;;;265.80;;
55617;SDS011;41492;49.804;9.952;2023-02-05T06:18:55;647.70;;;261.02;;
55617;SDS011;41492;49.804;9.952;2023-02-05T06:21:23;647.42;;;259.90;;
55617;SDS011;41492;49.804;9.952;2023-02-05T06:23:50;645.00;;;257.42;;
55617;SDS011;41492;49.804;9.952;2023-02-05T06:26:16;646.15;;;256.50;;
55617;SDS011;41492;49.804;9.952;2023-02-05T06:28:43;649.63;;;265.35;;
55617;SDS011;41492;49.804;9.952;2023-02-05T06:31:10;642.55;;;246.57;;
55617;SDS011;41492;49.804;9.952;2023-02-05T06:33:36;645.92;;;252.68;;
55617;SDS011;41492;49.804;9.952;2023-02-05T06:36:03;644.45;;;256.42;;
55617;SDS011;41492;49.804;9.952;2023-02-05T06:38:32;650.15;;;261.15;;
55617;SDS011;41492;49.804;9.952;2023-02-05T06:40:58;645.08;;;255.40;;
55617;SDS011;41492;49.804;9.952;2023-02-05T06:43:25;648.90;;;264.98;;
55617;SDS011;41492;49.804;9.952;2023-02-05T06:45:51;648.90;;;262.67;;
55617;SDS011;41492;49.804;9.952;2023-02-05T06:48:19;644.10;;;255.30;;
55617;SDS011;41492;49.804;9.952;2023-02-05T06:50:46;646.92;;;252.27;;
55617;SDS011;41492;49.804;9.952;2023-02-05T06:53:13;646.85;;;255.23;;
55617;SDS011;41492;49.804;9.952;2023-02-05T06:55:40;640.13;;;239.77;;
55617;SDS011;41492;49.804;9.952;2023-02-05T06:58:07;646.00;;;255.32;;
55617;SDS011;41492;49.804;9.952;2023-02-05T07:00:34;640.35;;;241.82;;
55617;SDS011;41492;49.804;9.952;2023-02-05T07:03:00;640.72;;;237.68;;
55617;SDS011;41492;49.804;9.952;2023-02-05T07:05:27;649.05;;;260.17;;
55617;SDS011;41492;49.804;9.952;2023-02-05T07:07:54;646.15;;;250.90;;
55617;SDS011;41492;49.804;9.952;2023-02-05T07:10:20;648.03;;;263.80;;
55617;SDS011;41492;49.804;9.952;2023-02-05T07:12:48;644.80;;;250.57;;
55617;SDS011;41492;49.804;9.952;2023-02-05T07:15:15;646.13;;;255.65;;
55617;SDS011;41492;49.804;9.952;2023-02-05T07:17:41;641.45;;;244.85;;
55617;SDS011;41492;49.804;9.952;2023-02-05T07:20:08;641.88;;;241.48;;
55617;SDS011;41492;49.804;9.952;2023-02-05T07:22:36;641.35;;;241.13;;
55617;SDS011;41492;49.804;9.952;2023-02-05T07:25:02;647.65;;;260.48;;
55617;SDS011;41492;49.804;9.952;2023-02-05T07:27:29;643.58;;;255.82;;
55617;SDS011;41492;49.804;9.952;2023-02-05T07:29:57;645.65;;;258.70;;
55617;SDS011;41492;49.804;9.952;2023-02-05T07:32:24;646.33;;;259.23;;
55617;SDS011;41492;49.804;9.952;2023-02-05T07:34:50;646.45;;;255.30;;
55617;SDS011;41492;49.804;9.952;2023-02-05T07:37:17;648.15;;;261.30;;
55617;SDS011;41492;49.804;9.952;2023-02-05T07:39:44;645.05;;;256.27;;
55617;SDS011;41492;49.804;9.952;2023-02-05T07:42:10;643.47;;;250.77;;
55617;SDS011;41492;49.804;9.952;2023-02-05T07:44:37;645.53;;;255.38;;
55617;SDS011;41492;49.804;9.952;2023-02-05T07:47:05;645.63;;;261.50;;
55617;SDS011;41492;49.804;9.952;2023-02-05T07:49:31;647.97;;;264.38;;
55617;SDS011;41492;49.804;9.952;2023-02-05T07:51:58;645.17;;;250.65;;
55617;SDS011;41492;49.804;9.952;2023-02-05T07:54:24;642.55;;;244.68;;
55617;SDS011;41492;49.804;9.952;2023-02-05T07:56:51;645.28;;;253.98;;
55617;SDS011;41492;49.804;9.952;2023-02-05T07:59:19;647.63;;;263.38;;
55617;SDS011;41492;49.804;9.952;2023-02-05T08:01:45;646.45;;;255.80;;
55617;SDS011;41492;49.804;9.952;2023-02-05T08:04:13;642.25;;;246.02;;
55617;SDS011;41492;49.804;9.952;2023-02-05T08:06:40;647.63;;;257.35;;
55617;SDS011;41492;49.804;9.952;2023-02-05T08:09:07;643.85;;;254.02;;
55617;SDS011;41492;49.804;9.952;2023-02-05T08:11:33;640.95;;;238.48;;
55617;SDS011;41492;49.804;9.952;2023-02-05T08:14:00;645.30;;;253.82;;
55617;SDS011;41492;49.804;9.952;2023-02-05T08:16:26;647.08;;;255.25;;
55617;SDS011;41492;49.804;9.952;2023-02-05T08:18:53;641.17;;;238.98;;
55617;SDS011;41492;49.804;9.952;2023-02-05T08:21:21;646.78;;;257.13;;
55617;SDS011;41492;49.804;9.952;2023-02-05T08:23:48;644.83;;;254.02;;
55617;SDS011;41492;49.804;9.952;2023-02-05T08:26:14;643.92;;;248.68;;
55617;SDS011;41492;49.804;9.952;2023-02-05T08:28:41;646.92;;;259.73;;
55617;SDS011;41492;49.804;9.952;2023-02-05T08:31:08;646.90;;;257.88;;
55617;SDS011;41492;49.804;9.952;2023-02-05T08:33:36;643.88;;;249.13;;
55617;SDS011;41492;49.804;9.952;2023-02-05T08:36:03;647.90;;;262.52;;
55617;SDS011;41492;49.804;9.952;2023-02-05T08:38:31;643.80;;;248.85;;
55617;SDS011;41492;49.804;9.952;2023-02-05T08:40:58;645.33;;;251.82;;
55617;SDS011;41492;49.804;9.952;2023-02-05T08:43:36;644.78;;;245.45;;
55617;SDS011;41492;49.804;9.952;2023-02-05T08:46:03;643.25;;;247.77;;
55617;SDS011;41492;49.804;9.952;2023-02-05T08:48:30;647.08;;;256.90;;
55617;SDS011;41492;49.804;9.952;2023-02-05T08:50:57;638.83;;;233.85;;
55617;SDS011;41492;49.804;9.952;2023-02-05T08:53:23;639.83;;;240.20;;
55617;SDS011;41492;49.804;9.952;2023-02-05T08:55:54;644.28;;;251.90;;
55617;SDS011;41492;49.804;9.952;2023-02-05T08:58:21;645.35;;;251.70;;
55617;SDS011;41492;49.804;9.952;2023-02-05T09:00:48;641.67;;;250.27;;
55617;SDS011;41492;49.804;9.952;2023-02-05T09:03:14;643.38;;;251.85;;
55617;SDS011;41492;49.804;9.952;2023-02-05T09:05:41;648.90;;;257.50;;
55617;SDS011;41492;49.804;9.952;2023-02-05T09:08:08;643.85;;;248.25;;
55617;SDS011;41492;49.804;9.952;2023-02-05T09:10:34;646.38;;;258.75;;
55617;SDS011;41492;49.804;9.952;2023-02-05T09:13:02;641.85;;;245.57;;
55617;SDS011;41492;49.804;9.952;2023-02-05T09:15:29;643.83;;;252.60;;
55617;SDS011;41492;49.804;9.952;2023-02-05T09:17:55;646.83;;;261.67;;
55617;SDS011;41492;49.804;9.952;2023-02-05T09:20:22;643.78;;;249.95;;
55617;SDS011;41492;49.804;9.952;2023-02-05T09:22:48;648.47;;;262.85;;
55617;SDS011;41492;49.804;9.952;2023-02-05T09:25:18;643.85;;;247.75;;
55617;SDS011;41492;49.804;9.952;2023-02-05T09:27:44;645.20;;;254.55;;
55617;SDS011;41492;49.804;9.952;2023-02-05T09:30:13;641.13;;;244.02;;
55617;SDS011;41492;49.804;9.952;2023-02-05T09:32:39;643.53;;;250.95;;
55617;SDS011;41492;49.804;9.952;2023-02-05T09:35:06;640.75;;;237.32;;
55617;SDS011;41492;49.804;9.952;2023-02-05T09:37:33;638.95;;;232.00;;
55617;SDS011;41492;49.804;9.952;2023-02-05T09:40:00;639.72;;;237.50;;
55617;SDS011;41492;49.804;9.952;2023-02-05T09:42:27;643.70;;;250.50;;
55617;SDS011;41492;49.804;9.952;2023-02-05T09:45:02;646.63;;;261.33;;
55617;SDS011;41492;49.804;9.952;2023-02-05T09:47:40;642.28;;;246.45;;
55617;SDS011;41492;49.804;9.952;2023-02-05T09:50:11;639.17;;;236.63;;
55617;SDS011;41492;49.804;9.952;2023-02-05T09:52:40;643.83;;;251.68;;
55617;SDS011;41492;49.804;9.952;2023-02-05T09:55:13;642.45;;;248.93;;
55617;SDS011;41492;49.804;9.952;2023-02-05T09:57:43;638.20;;;230.95;;
55617;SDS011;41492;49.804;9.952;2023-02-05T10:00:12;640.05;;;239.15;;
55617;SDS011;41492;49.804;9.952;2023-02-05T10:02:46;647.22;;;256.88;;
55617;SDS011;41492;49.804;9.952;2023-02-05T10:05:16;643.28;;;249.60;;
55617;SDS011;41492;49.804;9.952;2023-02-05T10:07:45;642.45;;;243.13;;
55617;SDS011;41492;49.804;9.952;2023-02-05T10:10:23;646.33;;;254.10;;
55617;SDS011;41492;49.804;9.952;2023-02-05T10:13:11;645.30;;;257.58;;
55617;SDS011;41492;49.804;9.952;2023-02-05T10:18:52;645.38;;;255.70;;
55617;SDS011;41492;49.804;9.952;2023-02-05T10:21:40;643.60;;;253.40;;
55617;SDS011;41492;49.804;9.952;2023-02-05T10:24:19;645.92;;;255.18;;
55617;SDS011;41492;49.804;9.952;2023-02-05T10:26:55;644.92;;;252.48;;
55617;SDS011;41492;49.804;9.952;2023-02-05T10:29:27;643.20;;;245.07;;
55617;SDS011;41492;49.804;9.952;2023-02-05T10:32:03;646.40;;;255.85;;
55617;SDS011;41492;49.804;9.952;2023-02-05T10:34:46;644.92;;;250.35;;
55617;SDS011;41492;49.804;9.952;2023-02-05T10:37:19;641.25;;;247.88;;
55617;SDS011;41492;49.804;9.952;2023-02-05T10:39:46;640.35;;;245.07;;
55617;SDS011;41492;49.804;9.952;2023-02-05T10:42:18;642.92;;;244.40;;
55617;SDS011;41492;49.804;9.952;2023-02-05T10:44:49;640.35;;;238.10;;
55617;SDS011;41492;49.804;9.952;2023-02-05T10:47:20;640.20;;;236.30;;
55617;SDS011;41492;49.804;9.952;2023-02-05T10:49:51;645.80;;;252.40;;
55617;SDS011;41492;49.804;9.952;2023-02-05T10:52:20;640.13;;;237.65;;
55617;SDS011;41492;49.804;9.952;2023-02-05T10:54:47;646.55;;;256.13;;
55617;SDS011;41492;49.804;9.952;2023-02-05T10:57:15;646.80;;;262.70;;
55617;SDS011;41492;49.804;9.952;2023-02-05T10:59:46;646.53;;;260.88;;
55617;SDS011;41492;49.804;9.952;2023-02-05T11:02:16;640.80;;;240.38;;
55617;SDS011;41492;49.804;9.952;2023-02-05T11:04:44;644.35;;;252.90;;
55617;SDS011;41492;49.804;9.952;2023-02-05T11:07:15;641.05;;;239.65;;
55617;SDS011;41492;49.804;9.952;2023-02-05T11:09:47;642.67;;;249.55;;
55617;SDS011;41492;49.804;9.952;2023-02-05T11:12:15;639.88;;;238.02;;
55617;SDS011;41492;49.804;9.952;2023-02-05T11:14:44;641.53;;;241.05;;
55617;SDS011;41492;49.804;9.952;2023-02-05T11:17:17;644.45;;;255.80;;
55617;SDS011;41492;49.804;9.952;2023-02-05T11:19:52;643.03;;;248.68;;
55617;SDS011;41492;49.804;9.952;2023-02-05T11:22:25;643.08;;;250.05;;
55617;SDS011;41492;49.804;9.952;2023-02-05T11:25:03;642.40;;;246.95;;
55617;SDS011;41492;49.804;9.952;2023-02-05T11:27:32;643.78;;;248.02;;
55617;SDS011;41492;49.804;9.952;2023-02-05T11:30:14;640.00;;;238.20;;
55617;SDS011;41492;49.804;9.952;2023-02-05T11:32:44;640.70;;;244.30;;
55617;SDS011;41492;49.804;9.952;2023-02-05T11:35:17;646.22;;;255.65;;
55617;SDS011;41492;49.804;9.952;2023-02-05T11:37:48;643.45;;;246.73;;
55617;SDS011;41492;49.804;9.952;2023-02-05T11:40:21;644.58;;;249.93;;
55617;SDS011;41492;49.804;9.952;2023-02-05T11:42:52;643.38;;;253.57;;
55617;SDS011;41492;49.804;9.952;2023-02-05T11:45:30;643.15;;;244.35;;
55617;SDS011;41492;49.804;9.952;2023-02-05T11:47:57;644.97;;;253.88;;
55617;SDS011;41492;49.804;9.952;2023-02-05T11:50:27;643.05;;;247.43;;
55617;SDS011;41492;49.804;9.952;2023-02-05T11:53:04;643.17;;;248.23;;
55617;SDS011;41492;49.804;9.952;2023-02-05T11:55:32;646.38;;;255.45;;
55617;SDS011;41492;49.804;9.952;2023-02-05T11:58:00;646.55;;;257.73;;
55617;SDS011;41492;49.804;9.952;2023-02-05T12:00:28;644.20;;;257.77;;
55617;SDS011;41492;49.804;9.952;2023-02-05T12:03:00;646.00;;;261.45;;
55617;SDS011;41492;49.804;9.952;2023-02-05T12:05:30;642.55;;;248.82;;
55617;SDS011;41492;49.804;9.952;2023-02-05T12:08:00;644.47;;;254.57;;
55617;SDS011;41492;49.804;9.952;2023-02-05T12:10:32;640.58;;;240.82;;
55617;SDS011;41492;49.804;9.952;2023-02-05T12:13:05;645.40;;;259.58;;
55617;SDS011;41492;49.804;9.952;2023-02-05T12:15:36;642.00;;;246.27;;
55617;SDS011;41492;49.804;9.952;2023-02-05T12:18:10;643.53;;;247.75;;
55617;SDS011;41492;49.804;9.952;2023-02-05T12:20:44;637.28;;;235.35;;
55617;SDS011;41492;49.804;9.952;2023-02-05T12:23:31;642.88;;;247.82;;
55617;SDS011;41492;49.804;9.952;2023-02-05T12:26:18;645.75;;;254.00;;
55617;SDS011;41492;49.804;9.952;2023-02-05T12:28:54;643.03;;;252.27;;
55617;SDS011;41492;49.804;9.952;2023-02-05T12:31:35;643.90;;;252.57;;
55617;SDS011;41492;49.804;9.952;2023-02-05T12:34:16;638.28;;;234.07;;
55617;SDS011;41492;49.804;9.952;2023-02-05T12:36:54;644.78;;;253.55;;
55617;SDS011;41492;49.804;9.952;2023-02-05T12:39:34;644.35;;;254.68;;
55617;SDS011;41492;49.804;9.952;2023-02-05T12:42:09;638.60;;;233.27;;
55617;SDS011;41492;49.804;9.952;2023-02-05T12:44:48;644.15;;;250.10;;
55617;SDS011;41492;49.804;9.952;2023-02-05T12:47:34;637.47;;;231.23;;
55617;SDS011;41492;49.804;9.952;2023-02-05T12:50:13;646.95;;;258.55;;
55617;SDS011;41492;49.804;9.952;2023-02-05T12:52:49;643.22;;;245.05;;
55617;SDS011;41492;49.804;9.952;2023-02-05T12:58:13;642.75;;;249.20;;
55617;SDS011;41492;49.804;9.952;2023-02-05T13:00:42;640.50;;;237.27;;
55617;SDS011;41492;49.804;9.952;2023-02-05T13:03:13;644.30;;;250.32;;
55617;SDS011;41492;49.804;9.952;2023-02-05T13:05:44;645.75;;;256.27;;
55617;SDS011;41492;49.804;9.952;2023-02-05T13:08:14;638.42;;;234.55;;
55617;SDS011;41492;49.804;9.952;2023-02-05T13:10:46;639.03;;;236.15;;
55617;SDS011;41492;49.804;9.952;2023-02-05T13:13:16;642.63;;;247.27;;
55617;SDS011;41492;49.804;9.952;2023-02-05T13:15:47;640.63;;;239.43;;
55617;SDS011;41492;49.804;9.952;2023-02-05T13:18:21;644.38;;;252.50;;
55617;SDS011;41492;49.804;9.952;2023-02-05T13:20:50;645.67;;;253.13;;
55617;SDS011;41492;49.804;9.952;2023-02-05T13:23:37;642.25;;;245.45;;
55617;SDS011;41492;49.804;9.952;2023-02-05T13:26:27;646.22;;;256.42;;
55617;SDS011;41492;49.804;9.952;2023-02-05T13:29:13;637.67;;;234.77;;
55617;SDS011;41492;49.804;9.952;2023-02-05T13:31:41;643.40;;;248.45;;
55617;SDS011;41492;49.804;9.952;2023-02-05T13:34:12;645.65;;;261.40;;
55617;SDS011;41492;49.804;9.952;2023-02-05T13:36:55;645.55;;;256.48;;
55617;SDS011;41492;49.804;9.952;2023-02-05T13:39:45;639.85;;;241.18;;
55617;SDS011;41492;49.804;9.952;2023-02-05T13:42:35;639.20;;;238.73;;
55617;SDS011;41492;49.804;9.952;2023-02-05T13:51:45;645.25;;;254.73;;
55617;SDS011;41492;49.804;9.952;2023-02-05T13:54:25;644.33;;;253.77;;
55617;SDS011;41492;49.804;9.952;2023-02-05T13:57:11;645.22;;;255.70;;
55617;SDS011;41492;49.804;9.952;2023-02-05T14:00:03;637.00;;;229.52;;
55617;SDS011;41492;49.804;9.952;2023-02-05T14:02:36;644.88;;;257.02;;
55617;SDS011;41492;49.804;9.952;2023-02-05T14:05:06;644.08;;;256.15;;
55617;SDS011;41492;49.804;9.952;2023-02-05T14:07:34;642.03;;;248.30;;
55617;SDS011;41492;49.804;9.952;2023-02-05T14:10:04;645.13;;;258.05;;
55617;SDS011;41492;49.804;9.952;2023-02-05T14:12:32;644.72;;;256.17;;
55617;SDS011;41492;49.804;9.952;2023-02-05T14:17:51;643.42;;;252.35;;
55617;SDS011;41492;49.804;9.952;2023-02-05T14:20:29;643.72;;;248.80;;
55617;SDS011;41492;49.804;9.952;2023-02-05T14:23:00;644.58;;;253.10;;
55617;SDS011;41492;49.804;9.952;2023-02-05T14:25:43;639.13;;;236.13;;
55617;SDS011;41492;49.804;9.952;2023-02-05T14:28:32;636.55;;;231.73;;
55617;SDS011;41492;49.804;9.952;2023-02-05T14:31:01;637.08;;;232.95;;